Aeroporto :
LOGIN :

Iscrizione | Disclaimer

   EN    FR    IT 

 










Sommario :    VFR   VFR Marginale   IFR   IFR Intensivo   IFR Molto Intensivo
Visibilità : 
Base nubi : 
>= 8 km
>= 3000ft
5 / 8 km
1000 / 3000 ft
1500m / 5 km
500 / 1000 ft
800 / 1500m
200 / 500 ft
< 800m
< 200 ft
Simboli :   Temporali  Nebbia  Neve Forte  Precipitazioni Forti  Vento > 20 kt
SIGMETs :   Varie  Temporali  Ghiacco  Turbolenza  Onda orograficha  Ceneri Vulcaniche






- Altitudine del aeroporto : 309 ft
- Codice IATA : FNI


LFTW - Nîmes Garons

ULTIMO METAR :
  • 200200Z AUTO 34004KT CAVOK 04/M01 Q1027

METARs OBSOLETI :
  • 200130Z AUTO 02006KT 320V070 CAVOK 06/M00 Q1027
  • 200100Z AUTO 31007KT 280V340 9999 OVC049 06/M00 Q1027
  • 200030Z AUTO 34005KT CAVOK 06/M00 Q1027
  • 200000Z AUTO 31007KT CAVOK 06/M01 Q1027
  • 192330Z AUTO 31010KT CAVOK 07/M00 Q1027

TAF TAF LFTW
Valido dal 19 a 15 ore il 20 a 15 ore UTC


191400Z 1915/2015 VRB03KT CAVOK
BECMG 1919/1921 32010KT
TEMPO 1923/2008 VRB03KT
BECMG 2012/2014 35015G25KT



MetMap, La meteo Aeronautica in un colpo d'occhio ! - Copyright ORBIFLY Dicembre 2007 - Disclaimer

ORBIFLY MET'MAP TEAM :

Programmazione e sviluppo : Alexandra Zaïnal
Concezione : Baudouin d'Aumeries
Aiuto per la programmazione : Marc-Olivier Méhu
Supporto tecnico e logistico : Manuel Goepfert
Aiuto per la traduzione : Arnaldo La Scala

Contatto : metmap@orbifly.com




FONTI E CREDITI :

   NOAA